Terminal Aerodrome Forecast
Issued by NWS Portland, OR

Home | Current Version | Previous Version | Text Only | Print | Product List | Glossary On
Versions: 1 2 3 4 5 6 7 8 9 10 11 12 13 14 15 16 17 18 19 20 21 22 23 24 25 26 27 28 29 30 31 32 33 34 35 36 37
000
FTUS46 KPQR 181740
TAFSLE
TAF
KSLE 181740Z 1818/1918 17004KT P6SM SCT035 BKN050
     FM190000 17009KT P6SM -RA SCT030 OVC060
     FM190500 18010KT 4SM -RA BR SCT025 OVC050=

USA.gov is the U.S. government's official web portal to all federal, state and local government web resources and services.